sensor_id;sensor_type;location;lat;lon;timestamp;P1;durP1;ratioP1;P2;durP2;ratioP2
39896;SDS011;25567;48.276;14.242;2023-06-22T00:01:18;14.55;;;3.15;;
39896;SDS011;25567;48.276;14.242;2023-06-22T00:03:45;12.10;;;3.67;;
39896;SDS011;25567;48.276;14.242;2023-06-22T00:06:12;10.73;;;3.35;;
39896;SDS011;25567;48.276;14.242;2023-06-22T00:08:39;10.95;;;3.38;;
39896;SDS011;25567;48.276;14.242;2023-06-22T00:11:06;14.68;;;3.03;;
39896;SDS011;25567;48.276;14.242;2023-06-22T00:13:32;10.73;;;3.75;;
39896;SDS011;25567;48.276;14.242;2023-06-22T00:15:59;7.75;;;3.53;;
39896;SDS011;25567;48.276;14.242;2023-06-22T00:18:26;10.85;;;3.75;;
39896;SDS011;25567;48.276;14.242;2023-06-22T00:20:57;14.02;;;3.47;;
39896;SDS011;25567;48.276;14.242;2023-06-22T00:23:25;13.95;;;3.83;;
39896;SDS011;25567;48.276;14.242;2023-06-22T00:25:52;13.98;;;3.90;;
39896;SDS011;25567;48.276;14.242;2023-06-22T00:28:19;14.98;;;3.50;;
39896;SDS011;25567;48.276;14.242;2023-06-22T00:30:45;9.93;;;3.60;;
39896;SDS011;25567;48.276;14.242;2023-06-22T00:33:12;14.57;;;3.22;;
39896;SDS011;25567;48.276;14.242;2023-06-22T00:35:39;14.90;;;3.63;;
39896;SDS011;25567;48.276;14.242;2023-06-22T00:38:07;12.05;;;3.60;;
39896;SDS011;25567;48.276;14.242;2023-06-22T00:40:35;14.98;;;3.63;;
39896;SDS011;25567;48.276;14.242;2023-06-22T00:43:02;9.77;;;4.10;;
39896;SDS011;25567;48.276;14.242;2023-06-22T00:45:28;9.00;;;3.28;;
39896;SDS011;25567;48.276;14.242;2023-06-22T00:47:59;17.10;;;3.35;;
39896;SDS011;25567;48.276;14.242;2023-06-22T00:50:26;13.90;;;3.85;;
39896;SDS011;25567;48.276;14.242;2023-06-22T00:52:55;15.68;;;3.65;;
39896;SDS011;25567;48.276;14.242;2023-06-22T00:55:25;15.63;;;3.60;;
39896;SDS011;25567;48.276;14.242;2023-06-22T00:57:54;11.23;;;3.92;;
39896;SDS011;25567;48.276;14.242;2023-06-22T01:00:23;12.05;;;3.55;;
39896;SDS011;25567;48.276;14.242;2023-06-22T01:02:51;10.43;;;4.05;;
39896;SDS011;25567;48.276;14.242;2023-06-22T01:05:20;16.13;;;3.53;;
39896;SDS011;25567;48.276;14.242;2023-06-22T01:10:21;16.35;;;3.63;;
39896;SDS011;25567;48.276;14.242;2023-06-22T01:12:52;12.45;;;3.38;;
39896;SDS011;25567;48.276;14.242;2023-06-22T01:15:25;12.00;;;3.53;;
39896;SDS011;25567;48.276;14.242;2023-06-22T01:17:54;15.20;;;4.25;;
39896;SDS011;25567;48.276;14.242;2023-06-22T01:20:23;17.25;;;3.70;;
39896;SDS011;25567;48.276;14.242;2023-06-22T01:26:05;12.27;;;3.90;;
39896;SDS011;25567;48.276;14.242;2023-06-22T01:30:59;19.77;;;4.10;;
39896;SDS011;25567;48.276;14.242;2023-06-22T01:33:35;18.52;;;3.70;;
39896;SDS011;25567;48.276;14.242;2023-06-22T01:36:03;12.23;;;4.40;;
39896;SDS011;25567;48.276;14.242;2023-06-22T01:38:31;21.40;;;4.45;;
39896;SDS011;25567;48.276;14.242;2023-06-22T01:40:59;19.83;;;4.35;;
39896;SDS011;25567;48.276;14.242;2023-06-22T01:43:27;9.48;;;3.55;;
39896;SDS011;25567;48.276;14.242;2023-06-22T01:45:54;16.52;;;4.07;;
39896;SDS011;25567;48.276;14.242;2023-06-22T01:48:22;17.08;;;3.95;;
39896;SDS011;25567;48.276;14.242;2023-06-22T01:50:49;12.05;;;3.80;;
39896;SDS011;25567;48.276;14.242;2023-06-22T01:53:15;11.40;;;4.20;;
39896;SDS011;25567;48.276;14.242;2023-06-22T01:55:42;17.63;;;4.45;;
39896;SDS011;25567;48.276;14.242;2023-06-22T01:58:09;14.73;;;4.15;;
39896;SDS011;25567;48.276;14.242;2023-06-22T02:00:37;12.80;;;3.97;;
39896;SDS011;25567;48.276;14.242;2023-06-22T02:03:07;14.23;;;3.75;;
39896;SDS011;25567;48.276;14.242;2023-06-22T02:05:36;13.65;;;4.43;;
39896;SDS011;25567;48.276;14.242;2023-06-22T02:08:21;15.38;;;4.28;;
39896;SDS011;25567;48.276;14.242;2023-06-22T02:10:49;14.57;;;4.30;;
39896;SDS011;25567;48.276;14.242;2023-06-22T02:13:16;13.95;;;3.63;;
39896;SDS011;25567;48.276;14.242;2023-06-22T02:15:43;12.32;;;3.75;;
39896;SDS011;25567;48.276;14.242;2023-06-22T02:18:10;17.45;;;3.92;;
39896;SDS011;25567;48.276;14.242;2023-06-22T02:20:37;16.15;;;4.32;;
39896;SDS011;25567;48.276;14.242;2023-06-22T02:23:05;14.07;;;4.20;;
39896;SDS011;25567;48.276;14.242;2023-06-22T02:25:32;11.65;;;4.25;;
39896;SDS011;25567;48.276;14.242;2023-06-22T02:27:59;12.43;;;4.30;;
39896;SDS011;25567;48.276;14.242;2023-06-22T02:30:26;11.32;;;4.13;;
39896;SDS011;25567;48.276;14.242;2023-06-22T02:32:53;14.10;;;5.28;;
39896;SDS011;25567;48.276;14.242;2023-06-22T02:35:28;16.25;;;4.22;;
39896;SDS011;25567;48.276;14.242;2023-06-22T02:37:59;17.90;;;4.40;;
39896;SDS011;25567;48.276;14.242;2023-06-22T02:40:26;13.98;;;4.32;;
39896;SDS011;25567;48.276;14.242;2023-06-22T02:42:53;13.70;;;5.00;;
39896;SDS011;25567;48.276;14.242;2023-06-22T02:45:20;12.57;;;4.47;;
39896;SDS011;25567;48.276;14.242;2023-06-22T02:47:46;15.25;;;4.60;;
39896;SDS011;25567;48.276;14.242;2023-06-22T02:50:14;14.55;;;4.72;;
39896;SDS011;25567;48.276;14.242;2023-06-22T02:52:41;13.15;;;4.55;;
39896;SDS011;25567;48.276;14.242;2023-06-22T02:55:08;14.40;;;4.55;;
39896;SDS011;25567;48.276;14.242;2023-06-22T02:57:34;19.02;;;5.07;;
39896;SDS011;25567;48.276;14.242;2023-06-22T03:00:02;18.95;;;4.75;;
39896;SDS011;25567;48.276;14.242;2023-06-22T03:02:29;15.48;;;4.10;;
39896;SDS011;25567;48.276;14.242;2023-06-22T03:04:56;13.90;;;4.43;;
39896;SDS011;25567;48.276;14.242;2023-06-22T03:07:24;13.15;;;4.13;;
39896;SDS011;25567;48.276;14.242;2023-06-22T03:09:51;13.25;;;4.68;;
39896;SDS011;25567;48.276;14.242;2023-06-22T03:12:18;15.45;;;4.53;;
39896;SDS011;25567;48.276;14.242;2023-06-22T03:14:44;13.20;;;4.40;;
39896;SDS011;25567;48.276;14.242;2023-06-22T03:17:11;18.95;;;4.15;;
39896;SDS011;25567;48.276;14.242;2023-06-22T03:19:37;16.17;;;4.85;;
39896;SDS011;25567;48.276;14.242;2023-06-22T03:22:04;21.92;;;5.10;;
39896;SDS011;25567;48.276;14.242;2023-06-22T03:24:31;17.30;;;5.35;;
39896;SDS011;25567;48.276;14.242;2023-06-22T03:26:58;24.00;;;4.20;;
39896;SDS011;25567;48.276;14.242;2023-06-22T03:29:24;19.77;;;4.43;;
39896;SDS011;25567;48.276;14.242;2023-06-22T03:31:55;21.63;;;5.35;;
39896;SDS011;25567;48.276;14.242;2023-06-22T03:34:23;15.50;;;4.68;;
39896;SDS011;25567;48.276;14.242;2023-06-22T03:36:51;22.35;;;4.68;;
39896;SDS011;25567;48.276;14.242;2023-06-22T03:39:18;18.92;;;5.07;;
39896;SDS011;25567;48.276;14.242;2023-06-22T03:41:44;22.77;;;4.47;;
39896;SDS011;25567;48.276;14.242;2023-06-22T03:44:11;15.32;;;4.65;;
39896;SDS011;25567;48.276;14.242;2023-06-22T03:46:40;17.42;;;4.30;;
39896;SDS011;25567;48.276;14.242;2023-06-22T03:49:11;21.92;;;4.80;;
39896;SDS011;25567;48.276;14.242;2023-06-22T03:51:38;21.77;;;4.40;;
39896;SDS011;25567;48.276;14.242;2023-06-22T03:54:07;10.98;;;4.30;;
39896;SDS011;25567;48.276;14.242;2023-06-22T03:56:34;20.13;;;4.88;;
39896;SDS011;25567;48.276;14.242;2023-06-22T03:59:01;15.23;;;4.68;;
39896;SDS011;25567;48.276;14.242;2023-06-22T04:01:27;17.33;;;5.00;;
39896;SDS011;25567;48.276;14.242;2023-06-22T04:03:54;14.95;;;4.35;;
39896;SDS011;25567;48.276;14.242;2023-06-22T04:06:21;11.90;;;4.15;;
39896;SDS011;25567;48.276;14.242;2023-06-22T04:08:49;16.17;;;5.32;;
39896;SDS011;25567;48.276;14.242;2023-06-22T04:11:18;15.77;;;4.72;;
39896;SDS011;25567;48.276;14.242;2023-06-22T04:13:45;14.55;;;4.65;;
39896;SDS011;25567;48.276;14.242;2023-06-22T04:16:12;18.35;;;5.07;;
39896;SDS011;25567;48.276;14.242;2023-06-22T04:18:38;14.60;;;5.35;;
39896;SDS011;25567;48.276;14.242;2023-06-22T04:21:05;13.07;;;4.18;;
39896;SDS011;25567;48.276;14.242;2023-06-22T04:23:32;12.57;;;4.78;;
39896;SDS011;25567;48.276;14.242;2023-06-22T04:25:59;14.07;;;4.45;;
39896;SDS011;25567;48.276;14.242;2023-06-22T04:28:26;12.55;;;4.57;;
39896;SDS011;25567;48.276;14.242;2023-06-22T04:30:53;15.25;;;4.45;;
39896;SDS011;25567;48.276;14.242;2023-06-22T04:33:24;14.52;;;4.65;;
39896;SDS011;25567;48.276;14.242;2023-06-22T04:35:51;13.40;;;3.92;;
39896;SDS011;25567;48.276;14.242;2023-06-22T04:38:18;17.55;;;4.40;;
39896;SDS011;25567;48.276;14.242;2023-06-22T04:40:45;14.90;;;4.50;;
39896;SDS011;25567;48.276;14.242;2023-06-22T04:43:12;15.80;;;4.88;;
39896;SDS011;25567;48.276;14.242;2023-06-22T04:45:39;15.82;;;4.45;;
39896;SDS011;25567;48.276;14.242;2023-06-22T04:48:06;10.60;;;4.63;;
39896;SDS011;25567;48.276;14.242;2023-06-22T04:50:38;22.35;;;5.43;;
39896;SDS011;25567;48.276;14.242;2023-06-22T04:53:05;15.55;;;6.10;;
39896;SDS011;25567;48.276;14.242;2023-06-22T04:55:32;15.98;;;5.03;;
39896;SDS011;25567;48.276;14.242;2023-06-22T04:57:59;28.17;;;6.45;;
39896;SDS011;25567;48.276;14.242;2023-06-22T05:00:31;20.38;;;5.45;;
39896;SDS011;25567;48.276;14.242;2023-06-22T05:02:58;21.38;;;5.90;;
39896;SDS011;25567;48.276;14.242;2023-06-22T05:05:44;17.80;;;5.75;;
39896;SDS011;25567;48.276;14.242;2023-06-22T05:08:11;17.90;;;5.72;;
39896;SDS011;25567;48.276;14.242;2023-06-22T05:10:38;17.83;;;5.55;;
39896;SDS011;25567;48.276;14.242;2023-06-22T05:13:20;25.25;;;5.72;;
39896;SDS011;25567;48.276;14.242;2023-06-22T05:15:48;15.50;;;6.05;;
39896;SDS011;25567;48.276;14.242;2023-06-22T05:18:15;18.60;;;5.75;;
39896;SDS011;25567;48.276;14.242;2023-06-22T05:20:42;19.95;;;5.38;;
39896;SDS011;25567;48.276;14.242;2023-06-22T05:23:09;16.90;;;5.43;;
39896;SDS011;25567;48.276;14.242;2023-06-22T05:25:35;14.38;;;4.97;;
39896;SDS011;25567;48.276;14.242;2023-06-22T05:28:02;12.48;;;4.53;;
39896;SDS011;25567;48.276;14.242;2023-06-22T05:30:37;18.70;;;4.82;;
39896;SDS011;25567;48.276;14.242;2023-06-22T05:33:04;15.98;;;4.43;;
39896;SDS011;25567;48.276;14.242;2023-06-22T05:35:31;16.45;;;5.28;;
39896;SDS011;25567;48.276;14.242;2023-06-22T05:37:57;14.63;;;5.50;;
39896;SDS011;25567;48.276;14.242;2023-06-22T05:40:25;21.20;;;5.57;;
39896;SDS011;25567;48.276;14.242;2023-06-22T05:42:51;20.08;;;6.03;;
39896;SDS011;25567;48.276;14.242;2023-06-22T05:45:19;15.98;;;5.57;;
39896;SDS011;25567;48.276;14.242;2023-06-22T05:47:49;18.98;;;5.72;;
39896;SDS011;25567;48.276;14.242;2023-06-22T05:50:16;15.90;;;5.20;;
39896;SDS011;25567;48.276;14.242;2023-06-22T05:52:43;14.15;;;5.05;;
39896;SDS011;25567;48.276;14.242;2023-06-22T05:55:10;12.90;;;5.40;;
39896;SDS011;25567;48.276;14.242;2023-06-22T05:57:36;15.48;;;5.70;;
39896;SDS011;25567;48.276;14.242;2023-06-22T06:00:03;11.90;;;5.55;;
39896;SDS011;25567;48.276;14.242;2023-06-22T06:02:34;17.50;;;5.28;;
39896;SDS011;25567;48.276;14.242;2023-06-22T06:05:02;14.15;;;4.93;;
39896;SDS011;25567;48.276;14.242;2023-06-22T06:07:29;17.40;;;5.35;;
39896;SDS011;25567;48.276;14.242;2023-06-22T06:09:56;12.07;;;4.88;;
39896;SDS011;25567;48.276;14.242;2023-06-22T06:12:23;15.80;;;5.25;;
39896;SDS011;25567;48.276;14.242;2023-06-22T06:14:49;10.43;;;5.38;;
39896;SDS011;25567;48.276;14.242;2023-06-22T06:17:17;11.98;;;4.47;;
39896;SDS011;25567;48.276;14.242;2023-06-22T06:19:44;14.00;;;5.03;;
39896;SDS011;25567;48.276;14.242;2023-06-22T06:22:11;13.73;;;4.60;;
39896;SDS011;25567;48.276;14.242;2023-06-22T06:24:37;14.18;;;5.65;;
39896;SDS011;25567;48.276;14.242;2023-06-22T06:27:05;11.15;;;5.03;;
39896;SDS011;25567;48.276;14.242;2023-06-22T06:29:32;14.20;;;5.03;;
39896;SDS011;25567;48.276;14.242;2023-06-22T06:31:58;15.38;;;4.38;;
39896;SDS011;25567;48.276;14.242;2023-06-22T06:34:25;13.80;;;5.15;;
39896;SDS011;25567;48.276;14.242;2023-06-22T06:36:51;14.25;;;5.05;;
39896;SDS011;25567;48.276;14.242;2023-06-22T06:39:18;19.85;;;6.38;;
39896;SDS011;25567;48.276;14.242;2023-06-22T06:41:45;13.73;;;5.38;;
39896;SDS011;25567;48.276;14.242;2023-06-22T06:44:11;15.73;;;4.60;;
39896;SDS011;25567;48.276;14.242;2023-06-22T06:46:38;18.15;;;5.00;;
39896;SDS011;25567;48.276;14.242;2023-06-22T06:49:05;13.30;;;4.70;;
39896;SDS011;25567;48.276;14.242;2023-06-22T06:51:31;17.92;;;4.32;;
39896;SDS011;25567;48.276;14.242;2023-06-22T06:53:58;16.63;;;6.30;;
39896;SDS011;25567;48.276;14.242;2023-06-22T06:56:25;17.33;;;6.22;;
39896;SDS011;25567;48.276;14.242;2023-06-22T06:58:51;13.65;;;4.97;;
39896;SDS011;25567;48.276;14.242;2023-06-22T07:01:18;13.45;;;4.45;;
39896;SDS011;25567;48.276;14.242;2023-06-22T07:03:48;15.27;;;4.72;;
39896;SDS011;25567;48.276;14.242;2023-06-22T07:06:14;21.08;;;5.32;;
39896;SDS011;25567;48.276;14.242;2023-06-22T07:08:42;17.08;;;4.80;;
39896;SDS011;25567;48.276;14.242;2023-06-22T07:11:09;16.88;;;5.03;;
39896;SDS011;25567;48.276;14.242;2023-06-22T07:13:36;13.75;;;4.75;;
39896;SDS011;25567;48.276;14.242;2023-06-22T07:16:02;23.27;;;5.07;;
39896;SDS011;25567;48.276;14.242;2023-06-22T07:18:29;10.95;;;4.18;;
39896;SDS011;25567;48.276;14.242;2023-06-22T07:20:56;16.20;;;5.60;;
39896;SDS011;25567;48.276;14.242;2023-06-22T07:23:23;11.52;;;4.65;;
39896;SDS011;25567;48.276;14.242;2023-06-22T07:25:50;15.23;;;5.43;;
39896;SDS011;25567;48.276;14.242;2023-06-22T07:28:16;24.27;;;5.18;;
39896;SDS011;25567;48.276;14.242;2023-06-22T07:30:43;15.10;;;5.50;;
39896;SDS011;25567;48.276;14.242;2023-06-22T07:33:12;16.80;;;5.00;;
39896;SDS011;25567;48.276;14.242;2023-06-22T07:35:39;16.27;;;5.43;;
39896;SDS011;25567;48.276;14.242;2023-06-22T07:38:06;20.17;;;5.05;;
39896;SDS011;25567;48.276;14.242;2023-06-22T07:40:33;23.08;;;5.35;;
39896;SDS011;25567;48.276;14.242;2023-06-22T07:43:00;18.90;;;5.95;;
39896;SDS011;25567;48.276;14.242;2023-06-22T07:45:27;16.52;;;5.78;;
39896;SDS011;25567;48.276;14.242;2023-06-22T07:47:58;19.70;;;5.13;;
39896;SDS011;25567;48.276;14.242;2023-06-22T07:50:24;12.73;;;4.38;;
39896;SDS011;25567;48.276;14.242;2023-06-22T07:52:51;16.15;;;5.57;;
39896;SDS011;25567;48.276;14.242;2023-06-22T07:55:19;16.83;;;5.70;;
39896;SDS011;25567;48.276;14.242;2023-06-22T07:57:46;15.63;;;5.07;;
39896;SDS011;25567;48.276;14.242;2023-06-22T08:00:13;16.38;;;5.68;;
39896;SDS011;25567;48.276;14.242;2023-06-22T08:02:42;14.90;;;4.43;;
39896;SDS011;25567;48.276;14.242;2023-06-22T08:05:09;11.07;;;4.80;;
39896;SDS011;25567;48.276;14.242;2023-06-22T08:07:46;13.32;;;4.90;;
39896;SDS011;25567;48.276;14.242;2023-06-22T08:10:15;13.45;;;5.13;;
39896;SDS011;25567;48.276;14.242;2023-06-22T08:12:42;13.55;;;6.07;;
39896;SDS011;25567;48.276;14.242;2023-06-22T08:15:08;20.20;;;5.88;;
39896;SDS011;25567;48.276;14.242;2023-06-22T08:17:36;15.82;;;5.75;;
39896;SDS011;25567;48.276;14.242;2023-06-22T08:20:04;16.98;;;5.18;;
39896;SDS011;25567;48.276;14.242;2023-06-22T08:22:36;11.23;;;4.60;;
39896;SDS011;25567;48.276;14.242;2023-06-22T08:25:05;19.73;;;5.97;;
39896;SDS011;25567;48.276;14.242;2023-06-22T08:27:32;20.08;;;6.05;;
39896;SDS011;25567;48.276;14.242;2023-06-22T08:29:59;13.73;;;5.30;;
39896;SDS011;25567;48.276;14.242;2023-06-22T08:32:27;9.98;;;5.15;;
39896;SDS011;25567;48.276;14.242;2023-06-22T08:34:54;14.27;;;5.10;;
39896;SDS011;25567;48.276;14.242;2023-06-22T08:37:21;13.93;;;4.72;;
39896;SDS011;25567;48.276;14.242;2023-06-22T08:39:50;16.20;;;4.63;;
39896;SDS011;25567;48.276;14.242;2023-06-22T08:42:16;15.30;;;5.50;;
39896;SDS011;25567;48.276;14.242;2023-06-22T08:44:43;12.13;;;5.15;;
39896;SDS011;25567;48.276;14.242;2023-06-22T08:47:10;13.77;;;5.03;;
39896;SDS011;25567;48.276;14.242;2023-06-22T08:49:36;15.88;;;4.63;;
39896;SDS011;25567;48.276;14.242;2023-06-22T08:52:03;16.52;;;4.70;;
39896;SDS011;25567;48.276;14.242;2023-06-22T08:54:31;19.05;;;4.97;;
39896;SDS011;25567;48.276;14.242;2023-06-22T08:56:59;14.48;;;5.07;;
39896;SDS011;25567;48.276;14.242;2023-06-22T08:59:26;12.50;;;5.32;;
39896;SDS011;25567;48.276;14.242;2023-06-22T09:01:52;13.93;;;5.13;;
39896;SDS011;25567;48.276;14.242;2023-06-22T09:04:19;16.25;;;5.30;;
39896;SDS011;25567;48.276;14.242;2023-06-22T09:06:48;17.00;;;4.95;;
39896;SDS011;25567;48.276;14.242;2023-06-22T09:09:16;22.00;;;5.97;;
39896;SDS011;25567;48.276;14.242;2023-06-22T09:11:43;11.68;;;4.85;;
39896;SDS011;25567;48.276;14.242;2023-06-22T09:14:10;16.88;;;5.45;;
39896;SDS011;25567;48.276;14.242;2023-06-22T09:16:36;13.65;;;5.40;;
39896;SDS011;25567;48.276;14.242;2023-06-22T09:19:03;15.77;;;5.13;;
39896;SDS011;25567;48.276;14.242;2023-06-22T09:21:30;22.33;;;5.85;;
39896;SDS011;25567;48.276;14.242;2023-06-22T09:24:00;16.90;;;5.03;;
39896;SDS011;25567;48.276;14.242;2023-06-22T09:26:26;14.18;;;5.50;;
39896;SDS011;25567;48.276;14.242;2023-06-22T09:28:53;17.88;;;5.95;;
39896;SDS011;25567;48.276;14.242;2023-06-22T09:31:20;9.48;;;4.60;;
39896;SDS011;25567;48.276;14.242;2023-06-22T09:33:52;16.67;;;5.13;;
39896;SDS011;25567;48.276;14.242;2023-06-22T09:36:22;9.13;;;4.60;;
39896;SDS011;25567;48.276;14.242;2023-06-22T09:38:49;11.65;;;4.80;;
39896;SDS011;25567;48.276;14.242;2023-06-22T09:41:24;15.48;;;4.80;;
39896;SDS011;25567;48.276;14.242;2023-06-22T09:43:51;20.27;;;5.47;;
39896;SDS011;25567;48.276;14.242;2023-06-22T09:46:21;22.52;;;5.22;;
39896;SDS011;25567;48.276;14.242;2023-06-22T09:48:51;16.88;;;5.30;;
39896;SDS011;25567;48.276;14.242;2023-06-22T09:51:18;10.30;;;4.97;;
39896;SDS011;25567;48.276;14.242;2023-06-22T09:53:46;12.65;;;5.43;;
39896;SDS011;25567;48.276;14.242;2023-06-22T09:56:13;18.15;;;5.95;;
39896;SDS011;25567;48.276;14.242;2023-06-22T09:58:41;16.55;;;5.40;;
39896;SDS011;25567;48.276;14.242;2023-06-22T10:01:08;16.35;;;5.13;;
39896;SDS011;25567;48.276;14.242;2023-06-22T10:03:36;19.50;;;6.07;;
39896;SDS011;25567;48.276;14.242;2023-06-22T10:06:03;14.55;;;5.68;;
39896;SDS011;25567;48.276;14.242;2023-06-22T10:08:30;15.55;;;5.18;;
39896;SDS011;25567;48.276;14.242;2023-06-22T10:10:57;17.50;;;5.18;;
39896;SDS011;25567;48.276;14.242;2023-06-22T10:13:23;11.18;;;4.93;;
39896;SDS011;25567;48.276;14.242;2023-06-22T10:15:50;22.15;;;5.30;;
39896;SDS011;25567;48.276;14.242;2023-06-22T10:18:18;11.38;;;5.60;;
39896;SDS011;25567;48.276;14.242;2023-06-22T10:20:47;14.20;;;6.07;;
39896;SDS011;25567;48.276;14.242;2023-06-22T10:23:13;16.48;;;5.30;;
39896;SDS011;25567;48.276;14.242;2023-06-22T10:25:40;22.38;;;6.05;;
39896;SDS011;25567;48.276;14.242;2023-06-22T10:28:07;13.07;;;4.72;;
39896;SDS011;25567;48.276;14.242;2023-06-22T10:30:34;16.85;;;5.53;;
39896;SDS011;25567;48.276;14.242;2023-06-22T10:33:00;16.65;;;5.60;;
39896;SDS011;25567;48.276;14.242;2023-06-22T10:35:27;18.27;;;6.07;;
39896;SDS011;25567;48.276;14.242;2023-06-22T10:37:54;10.18;;;5.28;;
39896;SDS011;25567;48.276;14.242;2023-06-22T10:40:21;18.73;;;6.22;;
39896;SDS011;25567;48.276;14.242;2023-06-22T10:42:47;14.18;;;5.80;;
39896;SDS011;25567;48.276;14.242;2023-06-22T10:45:16;13.68;;;5.40;;
39896;SDS011;25567;48.276;14.242;2023-06-22T10:47:43;18.38;;;5.78;;
39896;SDS011;25567;48.276;14.242;2023-06-22T10:50:10;15.65;;;6.40;;
39896;SDS011;25567;48.276;14.242;2023-06-22T10:52:37;21.05;;;6.28;;
39896;SDS011;25567;48.276;14.242;2023-06-22T10:55:04;22.60;;;5.78;;
39896;SDS011;25567;48.276;14.242;2023-06-22T10:57:31;12.07;;;5.10;;
39896;SDS011;25567;48.276;14.242;2023-06-22T10:59:58;13.45;;;5.50;;
39896;SDS011;25567;48.276;14.242;2023-06-22T11:02:24;17.10;;;5.40;;
39896;SDS011;25567;48.276;14.242;2023-06-22T11:04:51;14.60;;;5.05;;
39896;SDS011;25567;48.276;14.242;2023-06-22T11:07:18;11.60;;;5.22;;
39896;SDS011;25567;48.276;14.242;2023-06-22T11:09:45;14.52;;;5.53;;
39896;SDS011;25567;48.276;14.242;2023-06-22T11:12:12;17.45;;;6.05;;
39896;SDS011;25567;48.276;14.242;2023-06-22T11:14:39;16.90;;;5.65;;
39896;SDS011;25567;48.276;14.242;2023-06-22T11:17:05;16.92;;;5.63;;
39896;SDS011;25567;48.276;14.242;2023-06-22T11:19:32;19.17;;;6.03;;
39896;SDS011;25567;48.276;14.242;2023-06-22T11:21:59;17.92;;;5.80;;
39896;SDS011;25567;48.276;14.242;2023-06-22T11:24:25;14.77;;;5.47;;
39896;SDS011;25567;48.276;14.242;2023-06-22T11:26:52;15.00;;;6.45;;
39896;SDS011;25567;48.276;14.242;2023-06-22T11:29:19;12.50;;;5.63;;
39896;SDS011;25567;48.276;14.242;2023-06-22T11:32:03;14.85;;;5.95;;
39896;SDS011;25567;48.276;14.242;2023-06-22T11:34:29;12.43;;;5.93;;
39896;SDS011;25567;48.276;14.242;2023-06-22T11:37:00;17.55;;;6.05;;
39896;SDS011;25567;48.276;14.242;2023-06-22T11:39:27;15.40;;;5.63;;
39896;SDS011;25567;48.276;14.242;2023-06-22T11:42:08;12.02;;;5.63;;
39896;SDS011;25567;48.276;14.242;2023-06-22T11:44:35;15.95;;;6.10;;
39896;SDS011;25567;48.276;14.242;2023-06-22T11:47:02;15.07;;;6.15;;
39896;SDS011;25567;48.276;14.242;2023-06-22T11:49:30;19.20;;;5.43;;
39896;SDS011;25567;48.276;14.242;2023-06-22T11:51:57;17.25;;;6.20;;
39896;SDS011;25567;48.276;14.242;2023-06-22T11:54:24;16.77;;;5.57;;
39896;SDS011;25567;48.276;14.242;2023-06-22T11:56:51;20.35;;;5.65;;
39896;SDS011;25567;48.276;14.242;2023-06-22T11:59:18;18.15;;;6.53;;
39896;SDS011;25567;48.276;14.242;2023-06-22T12:01:45;20.52;;;6.30;;
39896;SDS011;25567;48.276;14.242;2023-06-22T12:04:12;20.08;;;6.43;;
39896;SDS011;25567;48.276;14.242;2023-06-22T12:06:38;15.30;;;6.13;;
39896;SDS011;25567;48.276;14.242;2023-06-22T12:09:08;24.33;;;6.63;;
39896;SDS011;25567;48.276;14.242;2023-06-22T12:11:35;17.92;;;5.75;;
39896;SDS011;25567;48.276;14.242;2023-06-22T12:14:01;14.77;;;5.60;;
39896;SDS011;25567;48.276;14.242;2023-06-22T12:16:28;15.85;;;6.10;;
39896;SDS011;25567;48.276;14.242;2023-06-22T12:18:55;14.48;;;6.45;;
39896;SDS011;25567;48.276;14.242;2023-06-22T12:21:22;19.75;;;6.20;;
39896;SDS011;25567;48.276;14.242;2023-06-22T12:23:49;19.15;;;6.55;;
39896;SDS011;25567;48.276;14.242;2023-06-22T12:26:16;18.90;;;7.22;;
39896;SDS011;25567;48.276;14.242;2023-06-22T12:28:42;19.10;;;6.40;;
39896;SDS011;25567;48.276;14.242;2023-06-22T12:31:09;21.17;;;6.20;;
39896;SDS011;25567;48.276;14.242;2023-06-22T12:33:36;19.27;;;6.32;;
39896;SDS011;25567;48.276;14.242;2023-06-22T12:36:03;18.65;;;6.22;;
39896;SDS011;25567;48.276;14.242;2023-06-22T12:38:31;14.45;;;6.47;;
39896;SDS011;25567;48.276;14.242;2023-06-22T12:40:58;20.52;;;6.63;;
39896;SDS011;25567;48.276;14.242;2023-06-22T12:43:24;20.25;;;6.72;;
39896;SDS011;25567;48.276;14.242;2023-06-22T12:45:51;20.00;;;6.40;;
39896;SDS011;25567;48.276;14.242;2023-06-22T12:48:17;24.38;;;7.13;;
39896;SDS011;25567;48.276;14.242;2023-06-22T12:50:44;21.75;;;6.20;;
39896;SDS011;25567;48.276;14.242;2023-06-22T12:53:11;16.25;;;6.45;;
39896;SDS011;25567;48.276;14.242;2023-06-22T12:55:37;24.55;;;7.35;;
39896;SDS011;25567;48.276;14.242;2023-06-22T12:58:04;26.27;;;6.90;;
39896;SDS011;25567;48.276;14.242;2023-06-22T13:00:31;17.50;;;6.28;;
39896;SDS011;25567;48.276;14.242;2023-06-22T13:02:58;15.35;;;6.82;;
39896;SDS011;25567;48.276;14.242;2023-06-22T13:05:25;18.65;;;6.80;;
39896;SDS011;25567;48.276;14.242;2023-06-22T13:07:51;18.13;;;6.68;;
39896;SDS011;25567;48.276;14.242;2023-06-22T13:10:18;26.00;;;6.60;;
39896;SDS011;25567;48.276;14.242;2023-06-22T13:12:44;22.13;;;7.20;;
39896;SDS011;25567;48.276;14.242;2023-06-22T13:15:11;25.00;;;7.13;;
39896;SDS011;25567;48.276;14.242;2023-06-22T13:17:38;21.50;;;6.75;;
39896;SDS011;25567;48.276;14.242;2023-06-22T13:20:05;13.93;;;6.45;;
39896;SDS011;25567;48.276;14.242;2023-06-22T13:22:32;18.67;;;6.88;;
39896;SDS011;25567;48.276;14.242;2023-06-22T13:25:02;26.55;;;7.10;;
39896;SDS011;25567;48.276;14.242;2023-06-22T13:27:28;29.38;;;7.82;;
39896;SDS011;25567;48.276;14.242;2023-06-22T13:29:55;28.02;;;6.85;;
39896;SDS011;25567;48.276;14.242;2023-06-22T13:32:21;23.73;;;7.25;;
39896;SDS011;25567;48.276;14.242;2023-06-22T13:34:48;21.02;;;7.05;;
39896;SDS011;25567;48.276;14.242;2023-06-22T13:37:15;16.73;;;7.03;;
39896;SDS011;25567;48.276;14.242;2023-06-22T13:39:41;18.02;;;7.00;;
39896;SDS011;25567;48.276;14.242;2023-06-22T13:42:08;16.17;;;6.82;;
39896;SDS011;25567;48.276;14.242;2023-06-22T13:44:35;15.32;;;6.45;;
39896;SDS011;25567;48.276;14.242;2023-06-22T13:47:01;20.63;;;7.05;;
39896;SDS011;25567;48.276;14.242;2023-06-22T13:49:28;20.30;;;7.50;;
39896;SDS011;25567;48.276;14.242;2023-06-22T13:51:55;23.17;;;7.60;;
39896;SDS011;25567;48.276;14.242;2023-06-22T13:54:21;37.15;;;7.68;;
39896;SDS011;25567;48.276;14.242;2023-06-22T13:56:51;20.10;;;6.75;;
39896;SDS011;25567;48.276;14.242;2023-06-22T13:59:18;19.98;;;7.30;;
39896;SDS011;25567;48.276;14.242;2023-06-22T14:01:44;32.42;;;7.53;;
39896;SDS011;25567;48.276;14.242;2023-06-22T14:04:11;24.75;;;6.93;;
39896;SDS011;25567;48.276;14.242;2023-06-22T14:06:38;25.13;;;7.07;;
39896;SDS011;25567;48.276;14.242;2023-06-22T14:09:05;19.75;;;7.10;;
39896;SDS011;25567;48.276;14.242;2023-06-22T14:11:31;18.85;;;7.60;;
39896;SDS011;25567;48.276;14.242;2023-06-22T14:13:58;25.58;;;7.20;;
39896;SDS011;25567;48.276;14.242;2023-06-22T14:16:25;21.08;;;7.00;;
39896;SDS011;25567;48.276;14.242;2023-06-22T14:18:51;22.55;;;7.20;;
39896;SDS011;25567;48.276;14.242;2023-06-22T14:21:21;22.67;;;7.93;;
39896;SDS011;25567;48.276;14.242;2023-06-22T14:23:48;20.25;;;6.90;;
39896;SDS011;25567;48.276;14.242;2023-06-22T14:26:16;15.43;;;7.00;;
39896;SDS011;25567;48.276;14.242;2023-06-22T14:28:46;20.27;;;7.80;;
39896;SDS011;25567;48.276;14.242;2023-06-22T14:31:19;19.05;;;7.38;;